Brookhaven Weather

Current Time: 01:12 Zulu

HWV METARs

Local Time Temperature Dew Point Wind Direction Wind Speed Wind Gust Sky Vis.
12/11/2019 12:56:00 AM 11.7° c 10.0° c 270° 4 kt - FEW 2000 ft AGL 10.0 sm
12/10/2019 11:56:00 PM 12.2° c 10.6° c 260° 3 kt - OVC 4700 ft AGL 9.0 sm
12/10/2019 11:16:00 PM 12.2° c 10.6° c 240° 4 kt - FEW 1100 ft AGL 8.0 sm
12/10/2019 11:05:00 PM 12.2° c 10.6° c 260° 5 kt - FEW 1900 ft AGL 8.0 sm
12/10/2019 10:56:00 PM 12.2° c 10.6° c 250° 4 kt - SCT 2900 ft AGL 8.0 sm
12/10/2019 9:56:00 PM 11.7° c 10.6° c 230° 8 kt - SCT 4100 ft AGL 7.0 sm
12/10/2019 9:34:00 PM 11.7° c 10.0° c 230° 7 kt - SCT 200 ft AGL 5.0 sm

ISP TAF:

KISP 110104Z 1101/1124 28010KT 6SM -SHRA BR SCT005 SCT010 BKN040 
FM110300 30010KT 5SM -RA BR OVC010 
FM110700 33019KT 4SM -RASN BR SCT008 OVC010 
FM110900 34008KT 2SM -SN BR OVC008 
FM111600 32007KT 6SM BR SCT008 OVC010 
FM111900 28008KT P6SM SCT020 OVC030
Weather data provided by aviationweather.gov. Pilots must verify weather before flying.